createdAt,value
2023-02-19T00:02:21.225Z,17.60
2023-02-19T00:05:45.174Z,17.50
2023-02-19T00:09:11.542Z,18.90
2023-02-19T00:12:35.581Z,20.20
2023-02-19T00:16:07.046Z,14.30
2023-02-19T00:19:31.226Z,13.50
2023-02-19T00:22:55.229Z,14.10
2023-02-19T00:26:19.972Z,12.00
2023-02-19T00:29:44.686Z,11.50
2023-02-19T00:33:09.393Z,13.60
2023-02-19T00:36:36.286Z,12.70
2023-02-19T00:40:00.450Z,19.50
2023-02-19T00:43:24.405Z,20.60
2023-02-19T00:46:49.139Z,17.90
2023-02-19T00:50:13.131Z,18.90
2023-02-19T00:53:39.831Z,18.00
2023-02-19T00:57:03.714Z,20.00
2023-02-19T01:00:27.619Z,20.70
2023-02-19T01:03:52.082Z,18.30
2023-02-19T01:07:16.104Z,18.40
2023-02-19T01:10:41.636Z,15.80
2023-02-19T01:14:05.695Z,18.00
2023-02-19T01:17:29.753Z,18.40
2023-02-19T01:20:53.860Z,17.80
2023-02-19T01:24:17.815Z,17.80
2023-02-19T01:27:41.742Z,19.70
2023-02-19T01:31:13.506Z,20.20
2023-02-19T01:34:37.630Z,19.00
2023-02-19T01:38:01.591Z,15.70
2023-02-19T01:41:26.805Z,14.50
2023-02-19T01:45:12.236Z,15.00
2023-02-19T01:48:40.517Z,15.80
2023-02-19T01:52:16.886Z,16.30
2023-02-19T01:55:41.774Z,13.60
2023-02-19T01:59:07.777Z,11.50
2023-02-19T02:02:31.901Z,11.90
2023-02-19T02:06:24.238Z,11.80
2023-02-19T02:10:06.198Z,14.60
2023-02-19T02:13:30.878Z,13.20
2023-02-19T02:17:06.868Z,12.00
2023-02-19T02:20:55.379Z,12.40
2023-02-19T02:24:42.698Z,12.60
2023-02-19T02:28:19.383Z,15.90
2023-02-19T02:32:06.239Z,13.80
2023-02-19T02:35:36.316Z,11.00
2023-02-19T02:39:05.298Z,10.20
2023-02-19T02:42:30.679Z,10.00
2023-02-19T02:45:59.045Z,10.20
2023-02-19T02:49:28.514Z,15.60
2023-02-19T02:53:17.663Z,5.50
2023-02-19T02:56:44.041Z,9.50
2023-02-19T03:00:08.684Z,8.20
2023-02-19T03:03:34.902Z,12.50
2023-02-19T03:07:03.244Z,11.10
2023-02-19T03:10:50.426Z,10.20
2023-02-19T03:14:33.119Z,9.30
2023-02-19T03:18:20.103Z,8.30
2023-02-19T03:21:46.776Z,10.70
2023-02-19T03:25:43.053Z,11.70
2023-02-19T03:29:24.425Z,9.50
2023-02-19T03:33:01.482Z,13.20
2023-02-19T03:36:31.624Z,11.80
2023-02-19T03:39:56.582Z,14.50
2023-02-19T03:43:25.197Z,14.40
2023-02-19T03:47:03.754Z,12.40
2023-02-19T03:50:37.714Z,13.80
2023-02-19T03:54:33.576Z,15.10
2023-02-19T03:58:15.298Z,13.00
2023-02-19T04:01:46.405Z,15.40
2023-02-19T04:05:25.976Z,15.90
2023-02-19T04:08:55.302Z,13.40
2023-02-19T04:12:23.756Z,18.30
2023-02-19T04:15:49.718Z,16.50
2023-02-19T04:22:40.250Z,14.60
2023-02-19T04:26:06.792Z,17.00
2023-02-19T04:29:30.699Z,12.00
2023-02-19T04:32:54.555Z,13.00
2023-02-19T04:36:18.637Z,10.90
2023-02-19T04:39:42.585Z,9.40
2023-02-19T04:43:06.606Z,10.80
2023-02-19T04:46:30.696Z,10.70
2023-02-19T04:49:54.653Z,6.80
2023-02-19T04:53:18.480Z,11.80
2023-02-19T04:56:42.376Z,6.80
2023-02-19T05:00:06.783Z,7.30
2023-02-19T05:03:30.956Z,9.00
2023-02-19T05:06:54.831Z,9.40
2023-02-19T05:10:18.776Z,6.70
2023-02-19T05:13:42.780Z,6.90
2023-02-19T05:17:07.594Z,7.30
2023-02-19T05:20:31.515Z,7.80
2023-02-19T05:23:55.310Z,10.90
2023-02-19T05:27:19.233Z,4.30
2023-02-19T05:30:43.078Z,4.90
2023-02-19T05:34:06.956Z,11.50
2023-02-19T05:37:30.839Z,18.00
2023-02-19T05:40:54.855Z,9.00
2023-02-19T05:44:18.872Z,15.10
2023-02-19T05:47:42.780Z,8.70
2023-02-19T05:51:09.568Z,9.60
2023-02-19T05:54:33.864Z,3.80
2023-02-19T05:57:58.212Z,5.90
2023-02-19T06:01:25.043Z,6.20
2023-02-19T06:04:49.079Z,8.30
2023-02-19T06:08:19.568Z,11.20
2023-02-19T06:11:43.661Z,12.50
2023-02-19T06:15:08.388Z,7.10
2023-02-19T06:18:32.277Z,8.70
2023-02-19T06:21:56.229Z,9.00
2023-02-19T06:25:21.042Z,9.70
2023-02-19T06:28:45.880Z,12.20
2023-02-19T06:32:10.210Z,12.40
2023-02-19T06:35:35.233Z,6.80
2023-02-19T06:39:02.317Z,11.40
2023-02-19T06:42:26.293Z,10.60
2023-02-19T06:45:50.238Z,9.90
2023-02-19T06:49:16.171Z,12.90
2023-02-19T06:52:40.108Z,10.50
2023-02-19T06:56:07.526Z,8.80
2023-02-19T06:59:31.398Z,9.90
2023-02-19T07:02:56.737Z,10.90
2023-02-19T07:06:22.510Z,13.40
2023-02-19T07:09:46.392Z,9.90
2023-02-19T07:13:10.318Z,25.80
2023-02-19T07:16:35.212Z,10.80
2023-02-19T07:19:59.150Z,10.00
2023-02-19T07:23:23.007Z,20.10
2023-02-19T07:26:46.797Z,13.20
2023-02-19T07:30:11.669Z,14.50
2023-02-19T07:33:35.664Z,16.80
2023-02-19T07:36:59.538Z,17.40
2023-02-19T07:40:23.486Z,18.30
2023-02-19T07:43:47.493Z,13.60
2023-02-19T07:47:11.406Z,16.90
2023-02-19T07:50:35.345Z,13.80
2023-02-19T07:53:59.466Z,16.80
2023-02-19T07:57:23.428Z,12.50
2023-02-19T08:00:47.327Z,14.70
2023-02-19T08:04:13.244Z,14.70
2023-02-19T08:07:38.104Z,13.70
2023-02-19T08:11:24.613Z,15.30
2023-02-19T08:18:14.149Z,15.20
2023-02-19T08:21:38.292Z,10.90
2023-02-19T08:25:02.194Z,17.00
2023-02-19T08:28:26.269Z,12.40
2023-02-19T08:31:51.230Z,13.30
2023-02-19T08:35:15.111Z,11.80
2023-02-19T08:38:39.235Z,13.70
2023-02-19T08:42:03.129Z,12.60
2023-02-19T08:45:27.046Z,14.50
2023-02-19T08:48:51.246Z,19.90
2023-02-19T08:52:15.177Z,22.60
2023-02-19T08:55:39.973Z,21.60
2023-02-19T08:59:03.946Z,18.30
2023-02-19T09:02:28.046Z,16.20
2023-02-19T09:05:51.998Z,16.00
2023-02-19T09:09:15.910Z,14.00
2023-02-19T09:12:40.721Z,12.90
2023-02-19T09:16:06.193Z,14.30
2023-02-19T09:19:30.832Z,14.40
2023-02-19T09:22:59.336Z,14.80
2023-02-19T09:26:25.017Z,12.60
2023-02-19T09:29:48.916Z,10.40
2023-02-19T09:33:12.899Z,13.10
2023-02-19T09:36:36.845Z,15.40
2023-02-19T09:40:00.692Z,13.00
2023-02-19T09:43:28.998Z,16.80
2023-02-19T09:46:55.068Z,11.70
2023-02-19T09:50:23.531Z,19.70
2023-02-19T09:53:51.947Z,14.80
2023-02-19T09:57:19.333Z,17.70
2023-02-19T10:00:43.967Z,18.50
2023-02-19T10:04:07.822Z,13.40
2023-02-19T10:07:40.477Z,14.00
2023-02-19T10:11:06.327Z,12.40
2023-02-19T10:14:45.944Z,13.90
2023-02-19T10:18:11.243Z,13.70
2023-02-19T10:21:35.382Z,13.80
2023-02-19T10:25:00.089Z,14.40
2023-02-19T10:28:29.150Z,14.50
2023-02-19T10:32:19.069Z,13.00
2023-02-19T10:35:57.887Z,11.50
2023-02-19T10:39:24.604Z,12.50
2023-02-19T10:42:55.150Z,12.80
2023-02-19T10:46:25.418Z,12.30
2023-02-19T10:49:52.280Z,11.60
2023-02-19T10:53:24.373Z,14.70
2023-02-19T10:56:48.619Z,17.10
2023-02-19T11:00:27.509Z,14.30
2023-02-19T11:04:15.225Z,18.60
2023-02-19T11:07:45.408Z,17.10
2023-02-19T11:11:09.631Z,14.40
2023-02-19T11:14:35.693Z,15.60
2023-02-19T11:18:20.461Z,11.80
2023-02-19T11:21:44.347Z,13.60
2023-02-19T11:25:11.102Z,17.20
2023-02-19T11:28:41.286Z,15.30
2023-02-19T11:32:26.767Z,19.10
2023-02-19T11:35:54.987Z,14.50
2023-02-19T11:39:18.829Z,11.80
2023-02-19T11:42:57.910Z,13.80
2023-02-19T11:46:59.684Z,13.80
2023-02-19T11:50:30.618Z,15.90
2023-02-19T11:54:33.441Z,11.60
2023-02-19T11:58:34.337Z,19.10
2023-02-19T12:02:18.370Z,13.20
2023-02-19T12:05:50.681Z,13.80
2023-02-19T12:09:33.492Z,13.70
2023-02-19T12:13:24.546Z,15.50
2023-02-19T12:16:52.591Z,13.50
2023-02-19T12:20:22.989Z,12.40
2023-02-19T12:24:14.986Z,17.00
2023-02-19T12:28:20.006Z,10.70
2023-02-19T12:32:06.462Z,12.00
2023-02-19T12:35:52.255Z,13.60
2023-02-19T12:39:40.600Z,10.20
2023-02-19T12:43:23.597Z,7.60
2023-02-19T12:46:56.230Z,12.60
2023-02-19T12:50:26.498Z,10.90
2023-02-19T12:54:16.147Z,10.80
2023-02-19T12:57:40.976Z,14.60
2023-02-19T13:01:08.369Z,16.40
2023-02-19T13:04:52.143Z,12.80
2023-02-19T13:08:48.791Z,11.80
2023-02-19T13:12:38.138Z,11.60
2023-02-19T13:16:09.923Z,11.70
2023-02-19T13:19:34.660Z,9.80
2023-02-19T13:23:22.340Z,11.70
2023-02-19T13:27:04.546Z,12.20
2023-02-19T13:30:39.867Z,12.00
2023-02-19T13:34:22.088Z,8.90
2023-02-19T13:37:46.364Z,11.00
2023-02-19T13:41:29.200Z,15.10
2023-02-19T13:44:57.998Z,14.50
2023-02-19T13:48:25.668Z,16.20
2023-02-19T13:51:52.893Z,16.20
2023-02-19T13:55:46.880Z,17.60
2023-02-19T13:59:37.952Z,23.60
2023-02-19T14:03:28.793Z,11.10
2023-02-19T14:07:04.879Z,16.50
2023-02-19T14:10:47.520Z,16.40
2023-02-19T14:14:36.436Z,17.60
2023-02-19T14:18:00.438Z,13.70
2023-02-19T14:21:39.041Z,17.00
2023-02-19T14:25:09.566Z,13.70
2023-02-19T14:28:38.376Z,13.60
2023-02-19T14:32:06.600Z,13.00
2023-02-19T14:35:41.749Z,16.90
2023-02-19T14:39:22.997Z,16.30
2023-02-19T14:42:47.395Z,18.40
2023-02-19T14:46:24.581Z,18.60
2023-02-19T14:49:51.030Z,18.30
2023-02-19T14:53:18.311Z,20.40
2023-02-19T14:56:48.076Z,19.80
2023-02-19T15:00:29.417Z,26.70
2023-02-19T15:03:57.803Z,21.30
2023-02-19T15:07:31.517Z,21.10
2023-02-19T15:10:56.018Z,21.20
2023-02-19T15:14:24.461Z,23.60
2023-02-19T15:17:48.479Z,24.70
2023-02-19T15:21:22.864Z,25.70
2023-02-19T15:24:48.871Z,24.10
2023-02-19T15:28:28.715Z,24.80
2023-02-19T15:32:00.573Z,24.80
2023-02-19T15:35:26.445Z,22.10
2023-02-19T15:38:55.725Z,19.70
2023-02-19T15:42:30.839Z,32.80
2023-02-19T15:46:10.805Z,22.70
2023-02-19T15:49:50.536Z,26.20
2023-02-19T15:53:26.598Z,20.00
2023-02-19T15:56:52.841Z,18.10
2023-02-19T16:00:23.349Z,25.70
2023-02-19T16:03:48.395Z,27.50
2023-02-19T16:07:32.028Z,31.30
2023-02-19T16:10:57.961Z,29.00
2023-02-19T16:14:29.352Z,20.90
2023-02-19T16:17:54.430Z,17.60
2023-02-19T16:21:23.260Z,22.20
2023-02-19T16:24:50.075Z,22.40
2023-02-19T16:28:27.420Z,39.40
2023-02-19T16:31:54.353Z,30.40
2023-02-19T16:35:40.371Z,22.90
2023-02-19T16:39:07.329Z,25.90
2023-02-19T16:42:31.705Z,25.00
2023-02-19T16:45:55.879Z,27.60
2023-02-19T16:49:22.226Z,25.80
2023-02-19T16:52:58.145Z,26.00
2023-02-19T16:56:25.423Z,24.30
2023-02-19T16:59:49.298Z,26.60
2023-02-19T17:03:20.679Z,26.70
2023-02-19T17:06:45.689Z,26.00
2023-02-19T17:10:14.220Z,29.80
2023-02-19T17:13:39.537Z,30.00
2023-02-19T17:17:03.477Z,28.70
2023-02-19T17:20:32.682Z,25.40
2023-02-19T17:23:57.603Z,22.70
2023-02-19T17:27:21.624Z,24.80
2023-02-19T17:30:45.594Z,28.70
2023-02-19T17:34:09.474Z,22.20
2023-02-19T17:37:33.444Z,25.80
2023-02-19T17:40:57.992Z,26.70
2023-02-19T17:44:22.030Z,24.40
2023-02-19T17:47:48.891Z,32.00
2023-02-19T17:51:13.157Z,31.20
2023-02-19T17:54:37.247Z,31.80
2023-02-19T17:58:01.881Z,21.50
2023-02-19T18:01:26.274Z,25.80
2023-02-19T18:04:50.282Z,29.70
2023-02-19T18:08:14.712Z,26.40
2023-02-19T18:11:38.950Z,24.00
2023-02-19T18:15:03.389Z,27.60
2023-02-19T18:18:31.225Z,23.60
2023-02-19T18:21:55.161Z,24.20
2023-02-19T18:25:22.958Z,24.00
2023-02-19T18:28:49.214Z,23.90
2023-02-19T18:32:15.585Z,20.30
2023-02-19T18:35:39.374Z,27.20
2023-02-19T18:39:03.274Z,17.70
2023-02-19T18:42:28.434Z,17.80
2023-02-19T18:45:54.762Z,20.20
2023-02-19T18:49:19.185Z,24.00
2023-02-19T18:52:43.500Z,23.00
2023-02-19T18:56:09.232Z,29.00
2023-02-19T19:03:01.051Z,25.50
2023-02-19T19:06:27.644Z,34.30
2023-02-19T19:09:51.691Z,29.40
2023-02-19T19:13:15.824Z,26.40
2023-02-19T19:16:39.744Z,27.30
2023-02-19T19:20:04.503Z,24.60
2023-02-19T19:23:28.573Z,25.90
2023-02-19T19:26:53.481Z,20.40
2023-02-19T19:30:18.180Z,25.20
2023-02-19T19:33:43.609Z,20.80
2023-02-19T19:37:10.597Z,20.30
2023-02-19T19:40:34.684Z,18.90
2023-02-19T19:43:58.764Z,28.00
2023-02-19T19:47:22.753Z,19.70
2023-02-19T19:50:49.056Z,24.30
2023-02-19T19:54:13.470Z,23.30
2023-02-19T19:57:40.629Z,18.80
2023-02-19T20:01:06.115Z,23.90
2023-02-19T20:04:30.521Z,23.20
2023-02-19T20:07:55.849Z,24.20
2023-02-19T20:11:19.708Z,23.70
2023-02-19T20:14:47.755Z,28.10
2023-02-19T20:18:11.658Z,22.50
2023-02-19T20:21:38.029Z,25.20
2023-02-19T20:25:02.266Z,21.10
2023-02-19T20:28:26.256Z,16.90
2023-02-19T20:31:51.668Z,21.00
2023-02-19T20:38:43.452Z,20.90
2023-02-19T20:42:08.320Z,16.40
2023-02-19T20:45:33.904Z,13.60
2023-02-19T20:48:58.442Z,15.90
2023-02-19T20:52:24.823Z,20.50
2023-02-19T20:55:48.828Z,16.70
2023-02-19T20:59:13.878Z,21.30
2023-02-19T21:02:38.969Z,22.10
2023-02-19T21:06:03.279Z,17.80
2023-02-19T21:09:27.180Z,26.60
2023-02-19T21:13:13.553Z,18.50
2023-02-19T21:17:11.578Z,24.80
2023-02-19T21:21:09.552Z,24.50
2023-02-19T21:25:07.523Z,20.20
2023-02-19T21:29:06.458Z,16.20
2023-02-19T21:33:04.535Z,17.70
2023-02-19T21:37:02.450Z,25.00
2023-02-19T21:41:01.527Z,20.40
2023-02-19T21:44:59.471Z,17.30
2023-02-19T21:48:57.671Z,20.60
2023-02-19T21:52:55.531Z,15.70
2023-02-19T21:56:53.474Z,14.00
2023-02-19T22:00:51.468Z,13.80
2023-02-19T22:04:49.465Z,15.30
2023-02-19T22:08:47.545Z,16.60
2023-02-19T22:12:45.394Z,18.70
2023-02-19T22:16:43.555Z,21.70
2023-02-19T22:20:44.457Z,20.40
2023-02-19T22:24:42.467Z,17.50
2023-02-19T22:28:40.513Z,16.40
2023-02-19T22:32:38.440Z,14.70
2023-02-19T22:36:38.419Z,16.30
2023-02-19T22:40:36.392Z,13.50
2023-02-19T22:44:34.375Z,12.50
2023-02-19T22:48:32.456Z,13.30
2023-02-19T22:52:30.387Z,12.80
2023-02-19T22:56:30.375Z,13.70
2023-02-19T23:00:34.326Z,13.60
2023-02-19T23:04:32.442Z,19.80
2023-02-19T23:08:30.348Z,13.50
2023-02-19T23:12:28.326Z,14.50
2023-02-19T23:16:26.359Z,13.80
2023-02-19T23:20:24.299Z,12.20
2023-02-19T23:24:22.489Z,14.60
2023-02-19T23:28:20.288Z,9.30
2023-02-19T23:32:18.323Z,12.00
2023-02-19T23:36:16.283Z,12.20
2023-02-19T23:40:14.279Z,16.50
2023-02-19T23:44:12.359Z,13.20
2023-02-19T23:48:10.325Z,12.20
2023-02-19T23:52:08.244Z,12.80
2023-02-19T23:56:06.231Z,11.10
